SWA892 KBOS-KDEN
Flight info
| Callsign | SWA892 |
|---|---|
| Flight time | N/A |
| Altitude | 36000 |
| Route | HYLND7 HYLND HANAA Q816 HOCKE/N0451F380 Q935 MONEE IANNA ONL PORDR AALLE4 |
| Aircraft | B737/M-SDE2E3FGHIRWXY/LB1 |
Departure
| Time | 2026-05-04 22:43 |
|---|---|
| Airport | Boston Logan International Airport (KBOS) |
Arrival
| Time | N/A |
|---|---|
| Airport | Denver International Airport (KDEN) |
| Time | Latitude | Longitude | Altitude | Speed | Heading |
|---|---|---|---|---|---|
| 2026-05-04 22:22 | 42.36380 | -71.01584 | 25 ft | 0 kts | 235° |
| 2026-05-04 22:33 | 42.36388 | -71.01569 | 26 ft | 3 kts | 227° |
| 2026-05-04 22:34 | 42.36403 | -71.01552 | 29 ft | 3 kts | 204° |
| 2026-05-04 22:34 | 42.36420 | -71.01547 | 26 ft | 3 kts | 162° |
| 2026-05-04 22:34 | 42.36433 | -71.01557 | 29 ft | 1 kts | 122° |
| 2026-05-04 22:34 | 42.36434 | -71.01559 | 29 ft | 0 kts | 121° |
| 2026-05-04 22:36 | 42.36429 | -71.01549 | 27 ft | 2 kts | 121° |
| 2026-05-04 22:37 | 42.36423 | -71.01535 | 26 ft | 2 kts | 122° |
| 2026-05-04 22:37 | 42.36408 | -71.01502 | 27 ft | 7 kts | 122° |
| 2026-05-04 22:37 | 42.36381 | -71.01426 | 26 ft | 12 kts | 111° |
| 2026-05-04 22:37 | 42.36387 | -71.01313 | 25 ft | 14 kts | 32° |
| 2026-05-04 22:38 | 42.36482 | -71.01264 | 27 ft | 16 kts | 19° |
| 2026-05-04 22:38 | 42.36595 | -71.01209 | 28 ft | 18 kts | 20° |
| 2026-05-04 22:38 | 42.36707 | -71.01154 | 24 ft | 17 kts | 20° |
| 2026-05-04 22:38 | 42.36815 | -71.01185 | 24 ft | 16 kts | 317° |
| 2026-05-04 22:39 | 42.36893 | -71.01216 | 26 ft | 13 kts | 34° |
| 2026-05-04 22:39 | 42.36972 | -71.01127 | 24 ft | 18 kts | 36° |
| 2026-05-04 22:39 | 42.37087 | -71.01046 | 24 ft | 19 kts | 25° |
| 2026-05-04 22:39 | 42.37204 | -71.00971 | 24 ft | 19 kts | 25° |
| 2026-05-04 22:40 | 42.37350 | -71.00882 | 27 ft | 26 kts | 20° |
| 2026-05-04 22:40 | 42.37531 | -71.00797 | 24 ft | 28 kts | 19° |
| 2026-05-04 22:40 | 42.37649 | -71.00741 | 26 ft | 27 kts | 19° |
| 2026-05-04 22:40 | 42.37794 | -71.00671 | 24 ft | 9 kts | 19° |
| 2026-05-04 22:41 | 42.37839 | -71.00622 | 26 ft | 9 kts | 67° |
| 2026-05-04 22:41 | 42.37836 | -71.00577 | 24 ft | 4 kts | 108° |
| 2026-05-04 22:41 | 42.37820 | -71.00514 | 24 ft | 11 kts | 110° |
| 2026-05-04 22:41 | 42.37771 | -71.00484 | 26 ft | 7 kts | 198° |
| 2026-05-04 22:42 | 42.37769 | -71.00485 | 26 ft | 0 kts | 199° |
| 2026-05-04 22:42 | 42.37708 | -71.00514 | 26 ft | 36 kts | 199° |
| 2026-05-04 22:42 | 42.37241 | -71.00737 | 28 ft | 104 kts | 200° |
| 2026-05-04 22:42 | 42.36397 | -71.01160 | 188 ft | 142 kts | 201° |
| 2026-05-04 22:43 | 42.35469 | -71.01585 | 853 ft | 149 kts | 202° |
| 2026-05-04 22:43 | 42.34327 | -71.01864 | 1088 ft | 193 kts | 178° |
| 2026-05-04 22:43 | 42.33091 | -71.01029 | 1872 ft | 201 kts | 136° |
| 2026-05-04 22:43 | 42.32279 | -70.99420 | 2534 ft | 219 kts | 123° |
| 2026-05-04 22:44 | 42.31412 | -70.97613 | 3007 ft | 236 kts | 118° |
| 2026-05-04 22:44 | 42.31102 | -70.95415 | 3558 ft | 251 kts | 80° |
| 2026-05-04 22:44 | 42.31478 | -70.92971 | 3913 ft | 278 kts | 74° |
| 2026-05-04 22:44 | 42.31919 | -70.90386 | 4750 ft | 283 kts | 74° |
| 2026-05-04 22:45 | 42.32343 | -70.87784 | 5714 ft | 286 kts | 74° |
| 2026-05-04 22:45 | 42.33304 | -70.82498 | 7426 ft | 289 kts | 56° |
| 2026-05-04 22:45 | 42.34636 | -70.80581 | 8310 ft | 276 kts | 24° |
| 2026-05-04 22:46 | 42.36384 | -70.79756 | 9195 ft | 267 kts | 1° |
| 2026-05-04 22:46 | 42.38239 | -70.79873 | 10011 ft | 263 kts | 343° |
| 2026-05-04 22:46 | 42.39953 | -70.80782 | 10499 ft | 274 kts | 324° |
| 2026-05-04 22:46 | 42.41511 | -70.82437 | 10694 ft | 296 kts | 317° |
| 2026-05-04 22:47 | 42.43104 | -70.84373 | 10885 ft | 319 kts | 316° |
| 2026-05-04 22:47 | 42.44793 | -70.86482 | 11050 ft | 340 kts | 316° |
| 2026-05-04 22:47 | 42.46572 | -70.88704 | 11413 ft | 353 kts | 316° |
| 2026-05-04 22:47 | 42.48373 | -70.90938 | 12029 ft | 358 kts | 316° |
| 2026-05-04 22:48 | 42.50224 | -70.93221 | 12756 ft | 360 kts | 316° |
| 2026-05-04 22:48 | 42.52092 | -70.95516 | 13463 ft | 364 kts | 316° |
| 2026-05-04 22:48 | 42.53980 | -70.97831 | 14101 ft | 368 kts | 316° |
| 2026-05-04 22:48 | 42.55889 | -71.00168 | 14784 ft | 370 kts | 316° |
| 2026-05-04 22:49 | 42.57805 | -71.02515 | 15519 ft | 372 kts | 316° |
| 2026-05-04 22:49 | 42.59735 | -71.04881 | 16186 ft | 374 kts | 316° |
| 2026-05-04 22:49 | 42.61675 | -71.07261 | 16840 ft | 378 kts | 316° |
| 2026-05-04 22:49 | 42.63630 | -71.09661 | 17489 ft | 380 kts | 316° |
| 2026-05-04 22:50 | 42.65600 | -71.12083 | 18118 ft | 383 kts | 316° |
| 2026-05-04 22:50 | 42.67584 | -71.14524 | 18654 ft | 386 kts | 316° |
| 2026-05-04 22:50 | 42.69581 | -71.16983 | 19210 ft | 388 kts | 316° |
| 2026-05-04 22:50 | 42.71585 | -71.19452 | 19766 ft | 390 kts | 316° |
| 2026-05-04 22:51 | 42.73606 | -71.21945 | 20260 ft | 393 kts | 316° |
| 2026-05-04 22:51 | 42.75596 | -71.24518 | 20740 ft | 396 kts | 311° |
| 2026-05-04 22:51 | 42.77240 | -71.27527 | 21263 ft | 398 kts | 302° |
| 2026-05-04 22:51 | 42.78566 | -71.30837 | 21770 ft | 400 kts | 295° |
| 2026-05-04 22:52 | 42.79501 | -71.34422 | 22216 ft | 405 kts | 287° |
| 2026-05-04 22:52 | 42.80211 | -71.38146 | 22671 ft | 408 kts | 286° |
| 2026-05-04 22:52 | 42.80898 | -71.41903 | 23109 ft | 411 kts | 286° |
| 2026-05-04 22:52 | 42.81576 | -71.45643 | 23500 ft | 413 kts | 286° |
| 2026-05-04 22:53 | 42.82270 | -71.49452 | 23839 ft | 416 kts | 286° |
| 2026-05-04 22:53 | 42.82974 | -71.53288 | 24171 ft | 418 kts | 286° |
| 2026-05-04 22:53 | 42.83687 | -71.57146 | 24512 ft | 421 kts | 286° |
| 2026-05-04 22:53 | 42.84406 | -71.61023 | 24831 ft | 423 kts | 286° |
| 2026-05-04 22:54 | 42.85130 | -71.64920 | 25120 ft | 426 kts | 286° |
| 2026-05-04 22:54 | 42.85860 | -71.68847 | 25429 ft | 428 kts | 286° |
| 2026-05-04 22:54 | 42.86592 | -71.72790 | 25742 ft | 430 kts | 285° |
| 2026-05-04 22:54 | 42.87325 | -71.76750 | 26052 ft | 432 kts | 285° |
| 2026-05-04 22:55 | 42.88062 | -71.80734 | 26338 ft | 434 kts | 285° |
| 2026-05-04 22:55 | 42.88798 | -71.84728 | 26634 ft | 435 kts | 285° |
| 2026-05-04 22:55 | 42.89535 | -71.88735 | 27049 ft | 434 kts | 285° |
| 2026-05-04 22:55 | 42.90266 | -71.92717 | 27514 ft | 431 kts | 285° |
| 2026-05-04 22:56 | 42.90983 | -71.96635 | 27931 ft | 431 kts | 285° |
| 2026-05-04 22:56 | 42.91706 | -72.00590 | 28305 ft | 430 kts | 285° |
| 2026-05-04 22:56 | 42.92429 | -72.04553 | 28737 ft | 429 kts | 285° |
| 2026-05-04 22:56 | 42.93148 | -72.08500 | 29161 ft | 428 kts | 285° |
| 2026-05-04 22:57 | 42.93865 | -72.12448 | 29578 ft | 427 kts | 285° |
| 2026-05-04 22:57 | 42.94578 | -72.16379 | 29979 ft | 426 kts | 284° |
| 2026-05-04 22:57 | 42.95290 | -72.20314 | 30287 ft | 427 kts | 284° |
| 2026-05-04 22:57 | 42.96001 | -72.24255 | 30541 ft | 428 kts | 284° |
| 2026-05-04 22:58 | 42.96713 | -72.28205 | 30848 ft | 428 kts | 284° |
| 2026-05-04 22:58 | 42.97422 | -72.32151 | 31127 ft | 429 kts | 284° |
| 2026-05-04 22:58 | 42.98133 | -72.36114 | 31397 ft | 430 kts | 284° |
| 2026-05-04 22:58 | 42.98843 | -72.40081 | 31645 ft | 431 kts | 284° |
| 2026-05-04 22:59 | 42.99554 | -72.44063 | 31917 ft | 431 kts | 284° |
| 2026-05-04 22:59 | 43.00262 | -72.48040 | 32206 ft | 431 kts | 284° |
| 2026-05-04 22:59 | 43.00971 | -72.52023 | 32479 ft | 432 kts | 283° |
| 2026-05-04 22:59 | 43.01680 | -72.56022 | 32721 ft | 433 kts | 283° |
| 2026-05-04 23:00 | 43.02378 | -72.59966 | 32991 ft | 432 kts | 283° |
| 2026-05-04 23:00 | 43.03093 | -72.64011 | 33253 ft | 432 kts | 283° |
| 2026-05-04 23:00 | 43.03786 | -72.67956 | 32844 ft | 431 kts | 287° |
| 2026-05-04 23:00 | 43.04487 | -72.71941 | 33785 ft | 432 kts | 283° |
| 2026-05-04 23:01 | 43.05895 | -72.79965 | 34102 ft | 434 kts | 283° |
| 2026-05-04 23:01 | 43.06597 | -72.83984 | 34323 ft | 433 kts | 283° |
| 2026-05-04 23:01 | 43.07296 | -72.87991 | 34513 ft | 434 kts | 283° |
| 2026-05-04 23:02 | 43.07995 | -72.92011 | 34667 ft | 435 kts | 283° |
| 2026-05-04 23:02 | 43.08694 | -72.96036 | 34862 ft | 435 kts | 283° |
| 2026-05-04 23:02 | 43.09390 | -73.00060 | 35080 ft | 434 kts | 282° |
| 2026-05-04 23:02 | 43.10085 | -73.04078 | 35306 ft | 433 kts | 282° |
| 2026-05-04 23:03 | 43.10777 | -73.08096 | 35505 ft | 434 kts | 282° |
| 2026-05-04 23:03 | 43.11470 | -73.12124 | 35693 ft | 434 kts | 282° |
| 2026-05-04 23:03 | 43.12842 | -73.20130 | 35791 ft | 435 kts | 282° |
| 2026-05-04 23:04 | 43.14216 | -73.28186 | 35799 ft | 434 kts | 282° |
| 2026-05-04 23:04 | 43.15584 | -73.36240 | 35779 ft | 433 kts | 282° |
| 2026-05-04 23:05 | 43.16944 | -73.44282 | 35777 ft | 433 kts | 282° |
| 2026-05-04 23:05 | 43.18297 | -73.52320 | 35769 ft | 433 kts | 282° |
| 2026-05-04 23:06 | 43.19642 | -73.60364 | 35769 ft | 433 kts | 281° |
| 2026-05-04 23:06 | 43.20410 | -73.68540 | 35765 ft | 433 kts | 276° |
| 2026-05-04 23:07 | 43.20980 | -73.76759 | 35768 ft | 433 kts | 275° |
| 2026-05-04 23:07 | 43.21563 | -73.84979 | 35769 ft | 433 kts | 276° |
| 2026-05-04 23:08 | 43.22157 | -73.93195 | 35777 ft | 433 kts | 276° |
| 2026-05-04 23:08 | 43.22752 | -74.01418 | 35768 ft | 433 kts | 276° |
| 2026-05-04 23:09 | 43.23337 | -74.09581 | 35781 ft | 433 kts | 276° |
| 2026-05-04 23:09 | 43.23919 | -74.17802 | 35785 ft | 433 kts | 276° |
| 2026-05-04 23:10 | 43.24496 | -74.26020 | 35780 ft | 432 kts | 276° |
| 2026-05-04 23:10 | 43.25048 | -74.34230 | 35776 ft | 432 kts | 274° |
| 2026-05-04 23:11 | 43.25320 | -74.42457 | 35776 ft | 431 kts | 272° |
| 2026-05-04 23:11 | 43.25500 | -74.50669 | 35774 ft | 431 kts | 272° |
| 2026-05-04 23:12 | 43.25687 | -74.58877 | 35779 ft | 430 kts | 272° |
| 2026-05-04 23:12 | 43.25887 | -74.67079 | 35767 ft | 430 kts | 272° |
| 2026-05-04 23:13 | 43.26086 | -74.75222 | 35773 ft | 429 kts | 272° |
| 2026-05-04 23:13 | 43.26281 | -74.83411 | 35766 ft | 429 kts | 272° |
| 2026-05-04 23:14 | 43.26470 | -74.91593 | 35769 ft | 429 kts | 272° |
| 2026-05-04 23:14 | 43.26653 | -74.99777 | 35762 ft | 429 kts | 272° |
| 2026-05-04 23:15 | 43.26830 | -75.07947 | 35764 ft | 428 kts | 272° |
| 2026-05-04 23:15 | 43.27001 | -75.16118 | 35760 ft | 428 kts | 272° |
| 2026-05-04 23:16 | 43.27166 | -75.24288 | 35758 ft | 428 kts | 272° |
| 2026-05-04 23:16 | 43.27325 | -75.32447 | 35756 ft | 427 kts | 272° |
| 2026-05-04 23:17 | 43.27477 | -75.40558 | 35761 ft | 427 kts | 272° |
| 2026-05-04 23:17 | 43.27625 | -75.48722 | 35755 ft | 427 kts | 272° |
| 2026-05-04 23:18 | 43.27766 | -75.56869 | 35758 ft | 427 kts | 272° |
| 2026-05-04 23:18 | 43.27902 | -75.65015 | 35749 ft | 426 kts | 272° |
| 2026-05-04 23:19 | 43.28032 | -75.73152 | 35752 ft | 426 kts | 272° |
| 2026-05-04 23:19 | 43.28156 | -75.81294 | 35736 ft | 426 kts | 272° |
| 2026-05-04 23:20 | 43.28274 | -75.89418 | 35733 ft | 426 kts | 272° |
| 2026-05-04 23:20 | 43.28386 | -75.97490 | 35730 ft | 425 kts | 272° |
| 2026-05-04 23:21 | 43.28492 | -76.05598 | 35729 ft | 425 kts | 272° |
| 2026-05-04 23:21 | 43.28593 | -76.13710 | 35727 ft | 424 kts | 272° |
| 2026-05-04 23:22 | 43.28688 | -76.21798 | 35720 ft | 424 kts | 272° |
| 2026-05-04 23:22 | 43.28777 | -76.29903 | 35721 ft | 423 kts | 272° |
| 2026-05-04 23:23 | 43.28860 | -76.37977 | 35723 ft | 423 kts | 272° |
| 2026-05-04 23:23 | 43.28938 | -76.46057 | 35719 ft | 423 kts | 272° |
| 2026-05-04 23:24 | 43.29010 | -76.54119 | 35723 ft | 422 kts | 272° |
| 2026-05-04 23:24 | 43.29077 | -76.62185 | 35719 ft | 422 kts | 272° |
| 2026-05-04 23:25 | 43.29159 | -76.70232 | 35721 ft | 422 kts | 272° |
| 2026-05-04 23:25 | 43.29285 | -76.78227 | 35719 ft | 421 kts | 272° |
| 2026-05-04 23:26 | 43.29391 | -76.84969 | 35721 ft | 421 kts | 272° |
| 2026-05-04 23:26 | 43.29506 | -76.92968 | 35714 ft | 421 kts | 272° |
| 2026-05-04 23:27 | 43.29612 | -77.01001 | 35721 ft | 421 kts | 272° |
| 2026-05-04 23:27 | 43.29712 | -77.09028 | 35719 ft | 420 kts | 272° |
| 2026-05-04 23:28 | 43.29806 | -77.17051 | 35722 ft | 420 kts | 272° |
| 2026-05-04 23:28 | 43.29895 | -77.25073 | 35717 ft | 420 kts | 272° |
| 2026-05-04 23:29 | 43.29978 | -77.33097 | 35721 ft | 420 kts | 272° |
| 2026-05-04 23:29 | 43.30055 | -77.41076 | 35714 ft | 420 kts | 272° |
| 2026-05-04 23:30 | 43.30127 | -77.49106 | 35713 ft | 420 kts | 272° |
| 2026-05-04 23:30 | 43.30193 | -77.57136 | 35706 ft | 420 kts | 272° |
| 2026-05-04 23:31 | 43.30254 | -77.65149 | 35709 ft | 420 kts | 271° |
| 2026-05-04 23:31 | 43.30309 | -77.73170 | 35705 ft | 420 kts | 271° |
| 2026-05-04 23:32 | 43.30359 | -77.81151 | 35708 ft | 420 kts | 271° |
| 2026-05-04 23:32 | 43.30403 | -77.89179 | 35699 ft | 419 kts | 271° |
| 2026-05-04 23:33 | 43.30441 | -77.97175 | 35704 ft | 419 kts | 271° |
| 2026-05-04 23:33 | 43.30474 | -78.05123 | 35697 ft | 419 kts | 271° |
| 2026-05-04 23:34 | 43.30501 | -78.13120 | 35704 ft | 418 kts | 271° |
| 2026-05-04 23:34 | 43.30356 | -78.21101 | 35700 ft | 418 kts | 269° |
| 2026-05-04 23:35 | 43.30120 | -78.29079 | 35702 ft | 418 kts | 269° |
| 2026-05-04 23:35 | 43.29895 | -78.37055 | 35687 ft | 417 kts | 269° |
| 2026-05-04 23:36 | 43.29681 | -78.45016 | 35692 ft | 417 kts | 269° |
| 2026-05-04 23:36 | 43.29468 | -78.52968 | 35683 ft | 417 kts | 269° |
| 2026-05-04 23:37 | 43.29250 | -78.60870 | 35688 ft | 416 kts | 269° |
| 2026-05-04 23:37 | 43.29026 | -78.68813 | 35689 ft | 416 kts | 269° |
| 2026-05-04 23:38 | 43.28911 | -78.72774 | 35552 ft | 411 kts | 269° |
| 2026-05-04 23:38 | 43.28798 | -78.76670 | 35613 ft | 407 kts | 269° |
| 2026-05-04 23:38 | 43.28569 | -78.84418 | 35690 ft | 406 kts | 269° |
| 2026-05-04 23:39 | 43.28335 | -78.92183 | 35696 ft | 407 kts | 269° |
| 2026-05-04 23:39 | 43.28296 | -78.99961 | 35682 ft | 408 kts | 272° |
| 2026-05-04 23:40 | 43.28395 | -79.07694 | 35683 ft | 408 kts | 271° |
| 2026-05-04 23:40 | 43.28438 | -79.15489 | 35683 ft | 409 kts | 271° |
| 2026-05-04 23:41 | 43.28506 | -79.23292 | 35684 ft | 409 kts | 271° |
| 2026-05-04 23:41 | 43.28575 | -79.31094 | 35681 ft | 409 kts | 271° |
| 2026-05-04 23:42 | 43.28637 | -79.38893 | 35675 ft | 409 kts | 271° |
| 2026-05-04 23:42 | 43.28691 | -79.46695 | 35672 ft | 408 kts | 271° |
| 2026-05-04 23:43 | 43.28739 | -79.54492 | 35663 ft | 408 kts | 271° |
| 2026-05-04 23:43 | 43.28782 | -79.62291 | 35664 ft | 408 kts | 271° |
| 2026-05-04 23:44 | 43.28819 | -79.70091 | 35671 ft | 408 kts | 271° |
| 2026-05-04 23:44 | 43.28851 | -79.77851 | 35676 ft | 408 kts | 271° |
| 2026-05-04 23:45 | 43.28878 | -79.85641 | 35679 ft | 408 kts | 271° |
| 2026-05-04 23:45 | 43.28899 | -79.93438 | 35680 ft | 408 kts | 271° |
| 2026-05-04 23:46 | 43.28916 | -80.01239 | 35682 ft | 409 kts | 271° |
| 2026-05-04 23:46 | 43.28927 | -80.09039 | 35676 ft | 409 kts | 270° |
| 2026-05-04 23:47 | 43.28932 | -80.16839 | 35675 ft | 408 kts | 270° |
| 2026-05-04 23:47 | 43.28933 | -80.24639 | 35663 ft | 408 kts | 270° |
| 2026-05-04 23:48 | 43.28928 | -80.32383 | 35670 ft | 408 kts | 270° |
| 2026-05-04 23:48 | 43.28918 | -80.40186 | 35662 ft | 408 kts | 270° |
| 2026-05-04 23:49 | 43.28902 | -80.47973 | 35663 ft | 408 kts | 270° |
| 2026-05-04 23:49 | 43.28881 | -80.55760 | 35666 ft | 407 kts | 270° |
| 2026-05-04 23:50 | 43.28855 | -80.63536 | 35666 ft | 407 kts | 270° |
| 2026-05-04 23:50 | 43.28824 | -80.71316 | 35661 ft | 407 kts | 270° |
| 2026-05-04 23:51 | 43.28788 | -80.79019 | 35655 ft | 406 kts | 270° |
| 2026-05-04 23:51 | 43.28746 | -80.86780 | 35657 ft | 406 kts | 270° |
| 2026-05-04 23:52 | 43.28699 | -80.94534 | 35657 ft | 406 kts | 270° |
| 2026-05-04 23:52 | 43.28648 | -81.02225 | 35653 ft | 405 kts | 270° |
| 2026-05-04 23:53 | 43.28590 | -81.09965 | 35655 ft | 405 kts | 270° |
| 2026-05-04 23:53 | 43.28528 | -81.17697 | 35654 ft | 405 kts | 270° |
| 2026-05-04 23:54 | 43.28460 | -81.25432 | 35648 ft | 405 kts | 269° |
| 2026-05-04 23:54 | 43.28388 | -81.33169 | 35643 ft | 405 kts | 269° |
| 2026-05-04 23:55 | 43.28310 | -81.40905 | 35636 ft | 405 kts | 269° |
| 2026-05-04 23:56 | 43.28183 | -81.52457 | 35626 ft | 405 kts | 269° |
| 2026-05-04 23:56 | 43.28092 | -81.60191 | 35620 ft | 405 kts | 269° |
| 2026-05-04 23:57 | 43.27996 | -81.67921 | 35617 ft | 405 kts | 269° |
| 2026-05-04 23:57 | 43.27895 | -81.75654 | 35615 ft | 405 kts | 269° |
| 2026-05-04 23:58 | 43.27788 | -81.83385 | 35610 ft | 405 kts | 269° |
| 2026-05-04 23:58 | 43.27677 | -81.91062 | 35607 ft | 405 kts | 269° |
| 2026-05-04 23:59 | 43.27560 | -81.98800 | 35607 ft | 405 kts | 269° |
| 2026-05-04 23:59 | 43.27438 | -82.06530 | 35603 ft | 405 kts | 269° |
| 2026-05-05 00:00 | 43.27311 | -82.14261 | 35598 ft | 405 kts | 269° |
| 2026-05-05 00:00 | 43.27180 | -82.21989 | 35592 ft | 405 kts | 269° |
| 2026-05-05 00:01 | 43.27071 | -82.29707 | 35594 ft | 404 kts | 269° |
| 2026-05-05 00:01 | 43.26942 | -82.37423 | 35596 ft | 404 kts | 268° |
| 2026-05-05 00:02 | 43.26773 | -82.45074 | 35586 ft | 404 kts | 268° |
| 2026-05-05 00:02 | 43.26605 | -82.52776 | 35580 ft | 404 kts | 268° |
| 2026-05-05 00:03 | 43.26438 | -82.60475 | 35572 ft | 404 kts | 268° |
| 2026-05-05 00:03 | 43.26267 | -82.68187 | 35561 ft | 404 kts | 268° |
| 2026-05-05 00:04 | 43.26138 | -82.75886 | 35560 ft | 404 kts | 269° |
| 2026-05-05 00:04 | 43.26109 | -82.83592 | 35558 ft | 403 kts | 269° |
| 2026-05-05 00:05 | 43.26083 | -82.91247 | 35556 ft | 403 kts | 269° |
| 2026-05-05 00:05 | 43.26042 | -82.98951 | 35559 ft | 403 kts | 269° |
| 2026-05-05 00:06 | 43.25989 | -83.06659 | 35561 ft | 403 kts | 269° |
| 2026-05-05 00:06 | 43.25929 | -83.14350 | 35560 ft | 403 kts | 269° |
| 2026-05-05 00:07 | 43.25864 | -83.22046 | 35560 ft | 403 kts | 269° |
| 2026-05-05 00:07 | 43.25794 | -83.29688 | 35557 ft | 403 kts | 269° |
| 2026-05-05 00:08 | 43.25719 | -83.37385 | 35559 ft | 403 kts | 269° |
| 2026-05-05 00:08 | 43.25638 | -83.45075 | 35560 ft | 403 kts | 269° |
| 2026-05-05 00:09 | 43.25553 | -83.52774 | 35562 ft | 403 kts | 269° |
| 2026-05-05 00:09 | 43.25462 | -83.60469 | 35563 ft | 403 kts | 269° |
| 2026-05-05 00:10 | 43.25366 | -83.68158 | 35551 ft | 403 kts | 269° |
| 2026-05-05 00:10 | 43.25265 | -83.75848 | 35549 ft | 403 kts | 268° |
| 2026-05-05 00:11 | 43.25159 | -83.83534 | 35548 ft | 403 kts | 268° |
| 2026-05-05 00:11 | 43.25049 | -83.91182 | 35549 ft | 403 kts | 268° |
| 2026-05-05 00:12 | 43.24932 | -83.98865 | 35551 ft | 403 kts | 268° |
| 2026-05-05 00:12 | 43.24811 | -84.06554 | 35554 ft | 403 kts | 268° |
| 2026-05-05 00:13 | 43.24684 | -84.14239 | 35570 ft | 403 kts | 268° |
| 2026-05-05 00:13 | 43.24553 | -84.21919 | 35572 ft | 403 kts | 268° |
| 2026-05-05 00:14 | 43.24416 | -84.29602 | 35571 ft | 403 kts | 268° |
| 2026-05-05 00:14 | 43.24275 | -84.37281 | 35552 ft | 403 kts | 268° |
| 2026-05-05 00:15 | 43.24153 | -84.43673 | 35548 ft | 403 kts | 268° |
| 2026-05-05 00:15 | 43.23933 | -84.51348 | 35541 ft | 403 kts | 266° |
| 2026-05-05 00:16 | 43.23548 | -84.59014 | 35537 ft | 403 kts | 265° |
| 2026-05-05 00:16 | 43.23147 | -84.66682 | 35537 ft | 403 kts | 265° |
| 2026-05-05 00:17 | 43.22757 | -84.74350 | 35535 ft | 403 kts | 265° |
| 2026-05-05 00:17 | 43.22374 | -84.81979 | 35541 ft | 403 kts | 265° |
| 2026-05-05 00:18 | 43.21987 | -84.89652 | 35547 ft | 403 kts | 265° |
| 2026-05-05 00:18 | 43.21595 | -84.97328 | 35552 ft | 403 kts | 265° |
| 2026-05-05 00:19 | 43.21199 | -85.04993 | 35553 ft | 403 kts | 265° |
| 2026-05-05 00:19 | 43.20798 | -85.12653 | 35561 ft | 403 kts | 265° |
| 2026-05-05 00:20 | 43.20392 | -85.20312 | 35565 ft | 402 kts | 265° |
| 2026-05-05 00:20 | 43.19984 | -85.27912 | 35566 ft | 402 kts | 265° |
| 2026-05-05 00:21 | 43.19569 | -85.35551 | 35564 ft | 402 kts | 265° |
| 2026-05-05 00:21 | 43.19148 | -85.43192 | 35559 ft | 401 kts | 265° |
| 2026-05-05 00:22 | 43.18723 | -85.50815 | 35561 ft | 401 kts | 265° |
| 2026-05-05 00:22 | 43.18293 | -85.58445 | 35559 ft | 401 kts | 265° |
| 2026-05-05 00:23 | 43.17858 | -85.66065 | 35560 ft | 401 kts | 265° |
| 2026-05-05 00:23 | 43.17417 | -85.73693 | 35549 ft | 401 kts | 265° |
| 2026-05-05 00:24 | 43.16975 | -85.81269 | 35547 ft | 401 kts | 265° |
| 2026-05-05 00:24 | 43.16524 | -85.88892 | 35543 ft | 401 kts | 265° |
| 2026-05-05 00:25 | 43.16069 | -85.96514 | 35540 ft | 402 kts | 265° |
| 2026-05-05 00:25 | 43.15608 | -86.04151 | 35529 ft | 402 kts | 265° |
| 2026-05-05 00:26 | 43.15141 | -86.11781 | 35526 ft | 402 kts | 265° |
| 2026-05-05 00:26 | 43.14669 | -86.19418 | 35522 ft | 402 kts | 265° |
| 2026-05-05 00:27 | 43.14192 | -86.27058 | 35528 ft | 403 kts | 265° |
| 2026-05-05 00:27 | 43.13713 | -86.34654 | 35524 ft | 403 kts | 265° |
| 2026-05-05 00:28 | 43.13225 | -86.42299 | 35530 ft | 403 kts | 265° |
| 2026-05-05 00:28 | 43.12733 | -86.49932 | 35538 ft | 403 kts | 265° |
| 2026-05-05 00:29 | 43.12234 | -86.57582 | 35542 ft | 403 kts | 265° |
| 2026-05-05 00:29 | 43.11734 | -86.65180 | 35547 ft | 403 kts | 265° |
| 2026-05-05 00:30 | 43.11227 | -86.72813 | 35549 ft | 403 kts | 265° |
| 2026-05-05 00:30 | 43.10714 | -86.80444 | 35551 ft | 402 kts | 265° |
| 2026-05-05 00:31 | 43.10195 | -86.88088 | 35546 ft | 402 kts | 265° |
| 2026-05-05 00:31 | 43.09672 | -86.95720 | 35546 ft | 402 kts | 265° |
| 2026-05-05 00:32 | 43.09149 | -87.03285 | 35543 ft | 402 kts | 265° |
| 2026-05-05 00:32 | 43.08616 | -87.10907 | 35544 ft | 402 kts | 265° |
| 2026-05-05 00:33 | 43.08079 | -87.18521 | 35541 ft | 402 kts | 265° |
| 2026-05-05 00:33 | 43.07536 | -87.26141 | 35540 ft | 402 kts | 265° |
| 2026-05-05 00:34 | 43.06989 | -87.33751 | 35538 ft | 402 kts | 265° |
| 2026-05-05 00:34 | 43.06437 | -87.41360 | 35535 ft | 402 kts | 265° |
| 2026-05-05 00:35 | 43.05880 | -87.48968 | 35527 ft | 402 kts | 265° |
| 2026-05-05 00:35 | 43.05320 | -87.56538 | 35520 ft | 402 kts | 264° |
| 2026-05-05 00:36 | 43.04753 | -87.64144 | 35511 ft | 402 kts | 264° |
| 2026-05-05 00:36 | 43.04181 | -87.71743 | 35507 ft | 402 kts | 264° |
| 2026-05-05 00:37 | 43.03605 | -87.79327 | 35500 ft | 401 kts | 264° |
| 2026-05-05 00:37 | 43.03027 | -87.86868 | 35499 ft | 401 kts | 264° |
| 2026-05-05 00:38 | 43.02440 | -87.94457 | 35497 ft | 401 kts | 264° |
| 2026-05-05 00:38 | 43.01849 | -88.02043 | 35515 ft | 401 kts | 264° |
| 2026-05-05 00:39 | 43.01253 | -88.09621 | 35514 ft | 401 kts | 264° |
| 2026-05-05 00:39 | 43.00651 | -88.17204 | 35523 ft | 401 kts | 264° |
| 2026-05-05 00:40 | 43.00044 | -88.24787 | 35527 ft | 401 kts | 264° |
| 2026-05-05 00:40 | 42.99432 | -88.32373 | 35525 ft | 402 kts | 264° |
| 2026-05-05 00:41 | 42.98816 | -88.39954 | 35526 ft | 402 kts | 264° |
| 2026-05-05 00:41 | 42.98194 | -88.47533 | 35524 ft | 402 kts | 264° |
| 2026-05-05 00:42 | 42.97572 | -88.55059 | 35532 ft | 401 kts | 264° |
| 2026-05-05 00:42 | 42.96941 | -88.62628 | 35531 ft | 401 kts | 264° |
| 2026-05-05 00:43 | 42.96304 | -88.70198 | 35536 ft | 401 kts | 264° |
| 2026-05-05 00:43 | 42.95664 | -88.77756 | 35539 ft | 401 kts | 264° |
| 2026-05-05 00:44 | 42.95019 | -88.85310 | 35538 ft | 400 kts | 264° |
| 2026-05-05 00:44 | 42.94368 | -88.92863 | 35544 ft | 400 kts | 264° |
| 2026-05-05 00:45 | 42.93713 | -89.00412 | 35546 ft | 400 kts | 264° |
| 2026-05-05 00:45 | 42.93058 | -89.07905 | 35548 ft | 400 kts | 264° |
| 2026-05-05 00:46 | 42.92395 | -89.15434 | 35553 ft | 399 kts | 264° |
| 2026-05-05 00:46 | 42.91727 | -89.22954 | 35549 ft | 399 kts | 264° |
| 2026-05-05 00:47 | 42.91055 | -89.30474 | 35554 ft | 399 kts | 264° |
| 2026-05-05 00:47 | 42.90378 | -89.37988 | 35556 ft | 399 kts | 264° |
| 2026-05-05 00:48 | 42.89695 | -89.45503 | 35557 ft | 399 kts | 264° |
| 2026-05-05 00:48 | 42.89008 | -89.53013 | 35573 ft | 399 kts | 264° |
| 2026-05-05 00:49 | 42.88321 | -89.60477 | 35578 ft | 399 kts | 264° |
| 2026-05-05 00:49 | 42.87623 | -89.67989 | 35585 ft | 399 kts | 264° |
| 2026-05-05 00:50 | 42.86922 | -89.75490 | 35583 ft | 399 kts | 264° |
| 2026-05-05 00:50 | 42.86216 | -89.82988 | 35582 ft | 399 kts | 264° |
| 2026-05-05 00:51 | 42.85506 | -89.90478 | 35585 ft | 399 kts | 264° |
| 2026-05-05 00:51 | 42.84790 | -89.97969 | 35579 ft | 398 kts | 264° |
| 2026-05-05 00:52 | 42.84070 | -90.05459 | 35592 ft | 398 kts | 264° |
| 2026-05-05 00:52 | 42.83468 | -90.11680 | 35605 ft | 398 kts | 264° |
| 2026-05-05 00:53 | 42.82619 | -90.20386 | 35615 ft | 399 kts | 264° |
| 2026-05-05 00:53 | 42.81884 | -90.27870 | 35623 ft | 399 kts | 264° |
| 2026-05-05 00:54 | 42.81144 | -90.35360 | 35627 ft | 399 kts | 264° |
| 2026-05-05 00:54 | 42.80399 | -90.42842 | 35634 ft | 399 kts | 264° |
| 2026-05-05 00:55 | 42.79648 | -90.50330 | 35630 ft | 399 kts | 264° |
| 2026-05-05 00:55 | 42.78893 | -90.57807 | 35641 ft | 399 kts | 264° |
| 2026-05-05 00:56 | 42.78134 | -90.65286 | 35632 ft | 399 kts | 264° |
| 2026-05-05 00:56 | 42.77375 | -90.72707 | 35638 ft | 398 kts | 264° |
| 2026-05-05 00:57 | 42.76606 | -90.80173 | 35645 ft | 398 kts | 264° |
| 2026-05-05 00:57 | 42.75834 | -90.87626 | 35648 ft | 398 kts | 264° |
| 2026-05-05 00:58 | 42.75058 | -90.95069 | 35654 ft | 397 kts | 264° |
| 2026-05-05 00:58 | 42.74277 | -91.02510 | 35660 ft | 397 kts | 264° |
| 2026-05-05 00:59 | 42.73493 | -91.09940 | 35662 ft | 397 kts | 264° |
| 2026-05-05 00:59 | 42.72703 | -91.17368 | 35662 ft | 397 kts | 264° |
| 2026-05-05 01:00 | 42.71910 | -91.24785 | 35664 ft | 396 kts | 264° |
| 2026-05-05 01:00 | 42.71111 | -91.32207 | 35663 ft | 396 kts | 264° |
| 2026-05-05 01:01 | 42.70308 | -91.39615 | 35672 ft | 396 kts | 264° |
| 2026-05-05 01:01 | 42.69507 | -91.46969 | 35685 ft | 396 kts | 264° |
| 2026-05-05 01:02 | 42.68695 | -91.54369 | 35679 ft | 396 kts | 264° |
| 2026-05-05 01:02 | 42.67878 | -91.61775 | 35688 ft | 396 kts | 264° |
| 2026-05-05 01:03 | 42.67057 | -91.69178 | 35688 ft | 396 kts | 264° |
| 2026-05-05 01:03 | 42.66371 | -91.75324 | 35687 ft | 396 kts | 264° |
| 2026-05-05 01:04 | 42.65541 | -91.82716 | 35692 ft | 395 kts | 264° |
| 2026-05-05 01:04 | 42.64289 | -91.93787 | 35692 ft | 395 kts | 264° |
| 2026-05-05 01:05 | 42.63447 | -92.01176 | 35692 ft | 395 kts | 264° |
| 2026-05-05 01:05 | 42.62609 | -92.08497 | 35692 ft | 395 kts | 264° |
| 2026-05-05 01:06 | 42.61760 | -92.15862 | 35694 ft | 395 kts | 264° |
| 2026-05-05 01:06 | 42.60905 | -92.23233 | 35709 ft | 395 kts | 264° |
| 2026-05-05 01:07 | 42.60048 | -92.30587 | 35709 ft | 394 kts | 264° |
| 2026-05-05 01:07 | 42.59185 | -92.37942 | 35713 ft | 394 kts | 264° |
| 2026-05-05 01:08 | 42.58318 | -92.45293 | 35711 ft | 394 kts | 264° |
| 2026-05-05 01:08 | 42.57447 | -92.52643 | 35712 ft | 394 kts | 264° |
| 2026-05-05 01:09 | 42.56571 | -92.59987 | 35711 ft | 394 kts | 264° |
| 2026-05-05 01:09 | 42.55690 | -92.67326 | 35714 ft | 394 kts | 264° |
| 2026-05-05 01:10 | 42.54805 | -92.74667 | 35711 ft | 394 kts | 264° |
| 2026-05-05 01:10 | 42.53920 | -92.81968 | 35714 ft | 395 kts | 264° |
| 2026-05-05 01:11 | 42.53023 | -92.89321 | 35729 ft | 395 kts | 264° |
| 2026-05-05 01:11 | 42.52123 | -92.96670 | 35742 ft | 395 kts | 264° |
| 2026-05-05 01:12 | 42.51216 | -93.04036 | 35754 ft | 396 kts | 264° |
| 2026-05-05 01:12 | 42.50701 | -93.11422 | 35763 ft | 392 kts | 273° |
| 2026-05-05 01:13 | 42.50853 | -93.18769 | 35769 ft | 392 kts | 273° |
| 2026-05-05 01:13 | 42.50996 | -93.26164 | 35767 ft | 392 kts | 273° |
| 2026-05-05 01:14 | 42.51122 | -93.33537 | 35771 ft | 391 kts | 273° |
| 2026-05-05 01:14 | 42.51237 | -93.40913 | 35764 ft | 390 kts | 273° |
| 2026-05-05 01:15 | 42.51346 | -93.48258 | 35759 ft | 390 kts | 273° |
| 2026-05-05 01:15 | 42.51450 | -93.55597 | 35758 ft | 389 kts | 273° |
| 2026-05-05 01:16 | 42.51549 | -93.62887 | 35763 ft | 389 kts | 273° |
| 2026-05-05 01:16 | 42.51643 | -93.70210 | 35769 ft | 388 kts | 272° |
| 2026-05-05 01:17 | 42.51733 | -93.77538 | 35769 ft | 388 kts | 272° |
| 2026-05-05 01:17 | 42.51818 | -93.84858 | 35767 ft | 388 kts | 272° |
| 2026-05-05 01:18 | 42.51897 | -93.92136 | 35769 ft | 388 kts | 272° |
| 2026-05-05 01:18 | 42.51973 | -93.99447 | 35772 ft | 388 kts | 272° |
| 2026-05-05 01:19 | 42.52044 | -94.06758 | 35798 ft | 387 kts | 272° |
| 2026-05-05 01:19 | 42.52110 | -94.14070 | 35795 ft | 387 kts | 272° |
| 2026-05-05 01:20 | 42.52171 | -94.21335 | 35796 ft | 387 kts | 272° |
| 2026-05-05 01:20 | 42.52228 | -94.28628 | 35799 ft | 387 kts | 272° |
| 2026-05-05 01:21 | 42.52280 | -94.35922 | 35799 ft | 387 kts | 272° |
| 2026-05-05 01:21 | 42.52328 | -94.43215 | 35806 ft | 387 kts | 272° |
| 2026-05-05 01:22 | 42.52371 | -94.50508 | 35814 ft | 386 kts | 272° |
| 2026-05-05 01:22 | 42.52409 | -94.57798 | 35817 ft | 386 kts | 272° |
| 2026-05-05 01:23 | 42.52443 | -94.65039 | 35822 ft | 386 kts | 272° |
| 2026-05-05 01:23 | 42.52472 | -94.72310 | 35828 ft | 386 kts | 272° |
| 2026-05-05 01:24 | 42.52496 | -94.79586 | 35827 ft | 385 kts | 272° |
| 2026-05-05 01:24 | 42.52516 | -94.86858 | 35833 ft | 385 kts | 272° |
| 2026-05-05 01:25 | 42.52531 | -94.94113 | 35834 ft | 385 kts | 272° |
| 2026-05-05 01:25 | 42.52542 | -95.01363 | 35838 ft | 384 kts | 272° |
| 2026-05-05 01:26 | 42.52548 | -95.08617 | 35838 ft | 384 kts | 272° |
| 2026-05-05 01:26 | 42.52550 | -95.15818 | 35843 ft | 384 kts | 272° |
| 2026-05-05 01:27 | 42.52547 | -95.23065 | 35842 ft | 384 kts | 272° |
| 2026-05-05 01:27 | 42.52539 | -95.30299 | 35851 ft | 384 kts | 272° |
| 2026-05-05 01:28 | 42.52527 | -95.37530 | 35847 ft | 384 kts | 272° |
| 2026-05-05 01:28 | 42.52511 | -95.44780 | 35843 ft | 384 kts | 271° |
| 2026-05-05 01:29 | 42.52490 | -95.51961 | 35845 ft | 384 kts | 271° |
| 2026-05-05 01:29 | 42.52464 | -95.59199 | 35840 ft | 384 kts | 271° |
| 2026-05-05 01:30 | 42.52434 | -95.66443 | 35844 ft | 383 kts | 271° |
| 2026-05-05 01:30 | 42.52399 | -95.73678 | 35840 ft | 383 kts | 271° |
| 2026-05-05 01:31 | 42.52359 | -95.80912 | 35838 ft | 383 kts | 271° |
| 2026-05-05 01:31 | 42.52316 | -95.88083 | 35832 ft | 383 kts | 271° |
| 2026-05-05 01:32 | 42.52267 | -95.95302 | 35840 ft | 383 kts | 271° |
| 2026-05-05 01:32 | 42.52215 | -96.02518 | 35842 ft | 383 kts | 271° |
| 2026-05-05 01:33 | 42.52157 | -96.09726 | 35845 ft | 382 kts | 271° |
| 2026-05-05 01:33 | 42.52095 | -96.16939 | 35851 ft | 382 kts | 271° |
| 2026-05-05 01:34 | 42.52029 | -96.24151 | 35859 ft | 382 kts | 271° |
| 2026-05-05 01:34 | 42.51958 | -96.31362 | 35852 ft | 382 kts | 271° |
| 2026-05-05 01:35 | 42.51883 | -96.38524 | 35851 ft | 382 kts | 271° |
| 2026-05-05 01:35 | 42.51803 | -96.45731 | 35854 ft | 382 kts | 271° |
| 2026-05-05 01:36 | 42.51719 | -96.52941 | 35850 ft | 382 kts | 271° |
| 2026-05-05 01:36 | 42.51630 | -96.60102 | 35857 ft | 382 kts | 271° |
| 2026-05-05 01:37 | 42.51537 | -96.67304 | 35859 ft | 381 kts | 271° |
| 2026-05-05 01:37 | 42.51439 | -96.74496 | 35874 ft | 381 kts | 271° |
| 2026-05-05 01:38 | 42.51337 | -96.81681 | 35889 ft | 381 kts | 271° |
| 2026-05-05 01:38 | 42.51231 | -96.88862 | 35875 ft | 381 kts | 270° |
| 2026-05-05 01:39 | 42.51120 | -96.96001 | 35887 ft | 381 kts | 270° |
| 2026-05-05 01:39 | 42.51005 | -97.03194 | 35879 ft | 381 kts | 270° |
| 2026-05-05 01:40 | 42.50885 | -97.10364 | 35883 ft | 381 kts | 270° |
| 2026-05-05 01:40 | 42.50760 | -97.17539 | 35896 ft | 380 kts | 270° |
| 2026-05-05 01:41 | 42.50632 | -97.24705 | 35888 ft | 380 kts | 270° |
| 2026-05-05 01:41 | 42.50499 | -97.31841 | 35887 ft | 380 kts | 270° |
| 2026-05-05 01:42 | 42.50362 | -97.39007 | 35895 ft | 380 kts | 270° |
| 2026-05-05 01:42 | 42.50219 | -97.46174 | 35896 ft | 380 kts | 270° |
| 2026-05-05 01:43 | 42.50073 | -97.53348 | 35900 ft | 380 kts | 270° |
| 2026-05-05 01:43 | 42.49922 | -97.60510 | 35897 ft | 380 kts | 270° |
| 2026-05-05 01:44 | 42.49767 | -97.67635 | 35901 ft | 380 kts | 270° |
| 2026-05-05 01:44 | 42.49607 | -97.74796 | 35908 ft | 380 kts | 270° |
| 2026-05-05 01:45 | 42.49443 | -97.81960 | 35909 ft | 380 kts | 270° |
| 2026-05-05 01:45 | 42.49274 | -97.89117 | 35906 ft | 380 kts | 270° |
| 2026-05-05 01:46 | 42.49101 | -97.96285 | 35902 ft | 380 kts | 269° |
| 2026-05-05 01:46 | 42.48924 | -98.03442 | 35900 ft | 380 kts | 269° |
| 2026-05-05 01:47 | 42.48741 | -98.10600 | 35902 ft | 380 kts | 269° |
| 2026-05-05 01:47 | 42.48556 | -98.17727 | 35895 ft | 380 kts | 269° |
| 2026-05-05 01:48 | 42.48538 | -98.18407 | 35897 ft | 380 kts | 269° |
| 2026-05-05 02:14 | 42.48422 | -98.22746 | 35902 ft | 380 kts | 269° |
| 2026-05-05 02:15 | 42.48228 | -98.29900 | 35896 ft | 380 kts | 269° |
| 2026-05-05 02:15 | 42.48032 | -98.37012 | 35896 ft | 380 kts | 269° |
| 2026-05-05 02:16 | 42.47829 | -98.44158 | 35900 ft | 379 kts | 269° |
| 2026-05-05 02:16 | 42.47622 | -98.51303 | 35902 ft | 379 kts | 269° |
| 2026-05-05 02:17 | 42.47411 | -98.58445 | 35908 ft | 379 kts | 269° |
| 2026-05-05 02:17 | 42.47196 | -98.65592 | 35907 ft | 380 kts | 269° |
| 2026-05-05 02:18 | 42.46975 | -98.72750 | 35904 ft | 380 kts | 269° |
| 2026-05-05 02:18 | 42.46755 | -98.79902 | 35907 ft | 380 kts | 269° |
| 2026-05-05 02:19 | 42.46537 | -98.87057 | 35905 ft | 380 kts | 269° |
| 2026-05-05 02:19 | 42.46320 | -98.94175 | 35901 ft | 380 kts | 269° |
| 2026-05-05 02:20 | 42.46103 | -99.01338 | 35897 ft | 380 kts | 269° |
| 2026-05-05 02:20 | 42.45885 | -99.08503 | 35893 ft | 381 kts | 269° |
| 2026-05-05 02:21 | 42.45669 | -99.15664 | 35889 ft | 381 kts | 269° |
| 2026-05-05 02:21 | 42.45451 | -99.22834 | 35891 ft | 381 kts | 269° |
| 2026-05-05 02:22 | 42.45234 | -99.29998 | 35889 ft | 381 kts | 269° |
| 2026-05-05 02:22 | 42.45020 | -99.37162 | 35892 ft | 381 kts | 269° |
| 2026-05-05 02:23 | 42.44807 | -99.44286 | 35890 ft | 381 kts | 269° |
| 2026-05-05 02:23 | 42.44591 | -99.51444 | 35888 ft | 381 kts | 269° |
| 2026-05-05 02:24 | 42.44373 | -99.58603 | 35891 ft | 380 kts | 269° |
| 2026-05-05 02:24 | 42.44154 | -99.65768 | 35904 ft | 380 kts | 269° |
| 2026-05-05 02:25 | 42.43935 | -99.72929 | 35909 ft | 380 kts | 269° |
| 2026-05-05 02:25 | 42.43722 | -99.80080 | 35919 ft | 380 kts | 269° |
| 2026-05-05 02:26 | 42.43508 | -99.87227 | 35921 ft | 380 kts | 269° |
| 2026-05-05 02:26 | 42.43295 | -99.94373 | 35924 ft | 380 kts | 269° |
| 2026-05-05 02:27 | 42.43085 | -100.01514 | 35924 ft | 380 kts | 269° |
| 2026-05-05 02:27 | 42.42880 | -100.08622 | 35925 ft | 380 kts | 269° |
| 2026-05-05 02:28 | 42.42673 | -100.15761 | 35928 ft | 380 kts | 269° |
| 2026-05-05 02:28 | 42.42469 | -100.22906 | 35926 ft | 380 kts | 269° |
| 2026-05-05 02:29 | 42.42263 | -100.30045 | 35923 ft | 380 kts | 269° |
| 2026-05-05 02:29 | 42.42063 | -100.37187 | 35918 ft | 380 kts | 269° |
| 2026-05-05 02:30 | 42.41863 | -100.44335 | 35917 ft | 380 kts | 269° |
| 2026-05-05 02:30 | 42.41664 | -100.51489 | 35917 ft | 380 kts | 269° |
| 2026-05-05 02:31 | 42.41466 | -100.58628 | 35918 ft | 380 kts | 269° |
| 2026-05-05 02:31 | 42.41272 | -100.65732 | 35919 ft | 380 kts | 269° |
| 2026-05-05 02:32 | 42.41078 | -100.72881 | 35921 ft | 380 kts | 269° |
| 2026-05-05 02:32 | 42.40888 | -100.80023 | 35927 ft | 380 kts | 269° |
| 2026-05-05 02:33 | 42.40702 | -100.87170 | 35927 ft | 380 kts | 269° |
| 2026-05-05 02:33 | 42.40514 | -100.94321 | 35925 ft | 380 kts | 269° |
| 2026-05-05 02:34 | 42.40327 | -101.01468 | 35923 ft | 380 kts | 269° |
| 2026-05-05 02:34 | 42.40143 | -101.08565 | 35923 ft | 380 kts | 269° |
| 2026-05-05 02:35 | 42.39962 | -101.15719 | 35927 ft | 380 kts | 269° |
| 2026-05-05 02:35 | 42.39783 | -101.22872 | 35932 ft | 381 kts | 269° |
| 2026-05-05 02:36 | 42.39605 | -101.30036 | 35929 ft | 381 kts | 269° |
| 2026-05-05 02:36 | 42.39428 | -101.37208 | 35930 ft | 381 kts | 269° |
| 2026-05-05 02:37 | 42.39252 | -101.44376 | 35927 ft | 381 kts | 269° |
| 2026-05-05 02:37 | 42.39082 | -101.51508 | 35933 ft | 381 kts | 269° |
| 2026-05-05 02:38 | 42.38914 | -101.58686 | 35935 ft | 381 kts | 269° |
| 2026-05-05 02:38 | 42.38746 | -101.65863 | 35932 ft | 382 kts | 269° |
| 2026-05-05 02:39 | 42.38580 | -101.73046 | 35935 ft | 382 kts | 269° |
| 2026-05-05 02:39 | 42.38413 | -101.80233 | 35933 ft | 382 kts | 269° |
| 2026-05-05 02:40 | 42.38247 | -101.87416 | 35934 ft | 382 kts | 269° |
| 2026-05-05 02:40 | 42.38045 | -101.94594 | 35924 ft | 383 kts | 263° |
| 2026-05-05 02:40 | 42.37262 | -101.98047 | 35941 ft | 390 kts | 247° |
| 2026-05-05 02:41 | 42.35656 | -102.01002 | 35935 ft | 404 kts | 231° |
| 2026-05-05 02:41 | 42.33360 | -102.03315 | 35946 ft | 417 kts | 220° |
| 2026-05-05 02:41 | 42.30821 | -102.05256 | 35927 ft | 421 kts | 217° |